Forside
METAR-TAF:

METAR-TAF

Lufthavne :

Naha, Japan

Breddekreds: 26-11N, længdekreds: 127-39E, højde: 3 m

Aktuelle vejr

Denne rapport blev lavet for 21 minutter siden, kl. 08:30 UTC
Vind 4 kt fra øst, varierende mellem nord og østsydøst
Temperatur 24°C
Fugtighed 78%
Tryk 1015 hPa
Sigt 10 km eller mere
Nogle få skyer i en højde af 3000 ft
Brudte skyer i en højde af 5000 ft

METAR: ROAH 220830Z 08004KT 010V110 9999 FEW030 BKN050 24/20 Q1015 RMK 1CU030 6SC050 A2997

Tid: 17:51 (08:51 UTC)

Vejrudsigter

Denne rapport blev lavet for 3 timer og 46 minutter siden, kl. 05:05 UTC
Foreløbig gælder fra 22 på 06 UTC til 23 på 12 UTC
Vind 8 kt fra østsydøst
Sigt 10 km eller mere
Nogle få skyer i en højde af 2500 ft
Spredte skyer i en højde af 3500 ft
ændring
fra 23 på 03 UTC til 23 på 06 UTC
Vind 8 kt fra nordnordøst

TAF: ROAH 220505Z 2206/2312 12008KT 9999 FEW025 SCT035 BECMG 2303/2306 02008KT

Vejrobservationer og prognoser fra mere end 4000 lufthavne (METAR og TAF).

De gule og røde prikker repræsenterer de meteorologiske stationer.

Flyt musen over at se navnet på stationen.

Så klik over at se vejr observationer og prognoser.

At skifte det kort: Klik på de grønne knapper med et sort kors for at zoome ind; på den grønne knap med en bindestreg for at zoome ud; eller på de grønne pile for tilstødende kort.


METAR-TAF: